createdAt,value
2023-05-23T00:01:21.300Z,21.50
2023-05-23T00:03:49.387Z,21.50
2023-05-23T00:06:22.068Z,21.40
2023-05-23T00:08:50.560Z,21.50
2023-05-23T00:11:20.208Z,21.40
2023-05-23T00:13:48.056Z,21.50
2023-05-23T00:16:17.305Z,21.50
2023-05-23T00:18:45.597Z,21.50
2023-05-23T00:21:13.984Z,21.40
2023-05-23T00:23:42.256Z,21.40
2023-05-23T00:26:10.542Z,21.40
2023-05-23T00:28:40.689Z,21.40
2023-05-23T00:31:08.613Z,21.40
2023-05-23T00:33:38.357Z,21.40
2023-05-23T00:36:06.566Z,21.40
2023-05-23T00:38:34.448Z,21.40
2023-05-23T00:41:03.057Z,21.50
2023-05-23T00:43:31.480Z,21.40
2023-05-23T00:45:59.712Z,21.40
2023-05-23T00:48:27.741Z,21.40
2023-05-23T00:50:58.061Z,21.40
2023-05-23T00:53:26.465Z,21.40
2023-05-23T00:55:54.397Z,21.50
2023-05-23T00:58:22.526Z,21.50
2023-05-23T01:00:54.268Z,21.40
2023-05-23T01:03:23.730Z,21.40
2023-05-23T01:05:51.935Z,21.40
2023-05-23T01:08:22.070Z,21.50
2023-05-23T01:10:50.609Z,21.50
2023-05-23T01:13:24.866Z,21.50
2023-05-23T01:16:02.632Z,21.50
2023-05-23T01:18:34.653Z,21.40
2023-05-23T01:21:07.378Z,21.40
2023-05-23T01:24:13.392Z,21.50
2023-05-23T01:26:54.228Z,21.50
2023-05-23T01:29:27.516Z,21.50
2023-05-23T01:31:58.336Z,21.40
2023-05-23T01:34:27.044Z,21.40
2023-05-23T01:36:56.725Z,21.40
2023-05-23T01:39:25.366Z,21.50
2023-05-23T01:41:54.975Z,21.50
2023-05-23T01:44:24.274Z,21.50
2023-05-23T01:46:52.408Z,21.50
2023-05-23T01:49:23.145Z,21.50
2023-05-23T01:51:51.678Z,21.40
2023-05-23T01:54:20.653Z,21.50
2023-05-23T01:56:51.413Z,21.40
2023-05-23T01:59:19.379Z,21.40
2023-05-23T02:01:48.755Z,21.40
2023-05-23T02:04:16.711Z,21.50
2023-05-23T02:06:45.221Z,21.40
2023-05-23T02:09:14.508Z,21.40
2023-05-23T02:11:42.403Z,21.40
2023-05-23T02:14:12.769Z,21.40
2023-05-23T02:16:40.730Z,21.40
2023-05-23T02:19:09.982Z,21.30
2023-05-23T02:21:38.777Z,21.30
2023-05-23T02:24:06.950Z,21.40
2023-05-23T02:26:34.786Z,21.40
2023-05-23T02:29:02.651Z,21.40
2023-05-23T02:31:30.948Z,21.40
2023-05-23T02:33:59.112Z,21.40
2023-05-23T02:36:28.574Z,21.30
2023-05-23T02:38:56.728Z,21.30
2023-05-23T02:41:25.047Z,21.30
2023-05-23T02:43:53.033Z,21.40
2023-05-23T02:46:20.991Z,21.30
2023-05-23T02:48:49.534Z,21.30
2023-05-23T02:51:17.565Z,21.30
2023-05-23T02:53:46.834Z,21.30
2023-05-23T02:56:15.722Z,21.20
2023-05-23T02:58:43.598Z,21.20
2023-05-23T03:01:11.981Z,21.20
2023-05-23T03:03:40.052Z,21.20
2023-05-23T03:06:10.651Z,21.20
2023-05-23T03:08:38.990Z,21.20
2023-05-23T03:11:08.410Z,21.20
2023-05-23T03:13:37.093Z,21.20
2023-05-23T03:16:05.228Z,21.20
2023-05-23T03:18:33.312Z,21.30
2023-05-23T03:21:01.383Z,21.30
2023-05-23T03:23:29.646Z,21.30
2023-05-23T03:25:57.707Z,21.20
2023-05-23T03:28:27.119Z,21.20
2023-05-23T03:30:55.146Z,21.30
2023-05-23T03:33:23.312Z,21.30
2023-05-23T03:35:51.638Z,21.20
2023-05-23T03:38:19.800Z,21.20
2023-05-23T03:40:48.340Z,21.20
2023-05-23T03:43:16.820Z,21.30
2023-05-23T03:45:46.926Z,21.20
2023-05-23T03:48:17.360Z,21.30
2023-05-23T03:50:45.657Z,21.30
2023-05-23T03:53:14.541Z,21.30
2023-05-23T03:55:44.146Z,21.30
2023-05-23T03:58:13.222Z,21.20
2023-05-23T04:00:43.951Z,21.20
2023-05-23T04:03:17.657Z,21.30
2023-05-23T04:05:47.327Z,21.30
2023-05-23T04:08:16.835Z,21.20
2023-05-23T04:10:47.209Z,21.20
2023-05-23T04:13:15.488Z,21.20
2023-05-23T04:15:45.268Z,21.20
2023-05-23T04:18:17.465Z,21.20
2023-05-23T04:20:45.928Z,21.30
2023-05-23T04:23:14.226Z,21.20
2023-05-23T04:25:44.734Z,21.20
2023-05-23T04:28:18.921Z,21.20
2023-05-23T04:30:49.286Z,21.20
2023-05-23T04:33:21.654Z,21.20
2023-05-23T04:35:51.152Z,21.20
2023-05-23T04:38:19.474Z,21.30
2023-05-23T04:40:48.191Z,21.20
2023-05-23T04:43:16.381Z,21.20
2023-05-23T04:45:54.860Z,21.20
2023-05-23T04:48:44.659Z,21.20
2023-05-23T04:51:12.656Z,21.20
2023-05-23T04:53:47.312Z,21.20
2023-05-23T04:56:17.246Z,21.20
2023-05-23T04:58:45.828Z,21.20
2023-05-23T05:01:15.672Z,21.20
2023-05-23T05:03:45.197Z,21.20
2023-05-23T05:06:14.466Z,21.20
2023-05-23T05:08:43.282Z,21.20
2023-05-23T05:11:12.320Z,21.20
2023-05-23T05:13:40.492Z,21.10
2023-05-23T05:16:08.959Z,21.00
2023-05-23T05:18:37.293Z,21.00
2023-05-23T05:21:06.597Z,21.00
2023-05-23T05:23:34.478Z,21.10
2023-05-23T05:26:03.284Z,21.00
2023-05-23T05:28:31.471Z,21.00
2023-05-23T05:31:00.191Z,21.00
2023-05-23T05:33:28.252Z,21.00
2023-05-23T05:36:04.162Z,21.10
2023-05-23T05:38:35.156Z,21.00
2023-05-23T05:41:03.239Z,21.00
2023-05-23T05:43:35.835Z,21.00
2023-05-23T05:46:03.749Z,21.00
2023-05-23T05:48:32.568Z,21.00
2023-05-23T05:51:04.793Z,21.00
2023-05-23T05:53:36.320Z,21.00
2023-05-23T05:56:04.425Z,21.00
2023-05-23T05:58:33.486Z,21.00
2023-05-23T06:01:08.555Z,21.00
2023-05-23T06:03:37.216Z,20.90
2023-05-23T06:06:05.502Z,20.50
2023-05-23T06:08:34.716Z,20.40
2023-05-23T06:11:02.657Z,20.30
2023-05-23T06:13:31.629Z,20.10
2023-05-23T06:15:59.553Z,20.00
2023-05-23T06:18:27.549Z,19.90
2023-05-23T06:20:55.711Z,19.80
2023-05-23T06:23:23.705Z,19.80
2023-05-23T06:25:53.009Z,19.60
2023-05-23T06:28:20.996Z,19.60
2023-05-23T06:37:30.797Z,19.50
2023-05-23T06:39:58.677Z,19.70
2023-05-23T06:42:28.179Z,19.60
2023-05-23T06:45:05.117Z,19.60
2023-05-23T06:47:33.777Z,19.60
2023-05-23T06:50:05.425Z,19.60
2023-05-23T07:02:33.880Z,19.50
2023-05-23T07:05:07.070Z,19.20
2023-05-23T07:07:47.059Z,19.40
2023-05-23T07:10:15.736Z,19.40
2023-05-23T07:12:44.253Z,19.40
2023-05-23T07:15:13.524Z,19.30
2023-05-23T07:17:52.560Z,19.40
2023-05-23T07:20:20.706Z,19.50
2023-05-23T07:22:51.568Z,19.50
2023-05-23T07:25:19.924Z,19.60
2023-05-23T07:27:47.839Z,19.60
2023-05-23T07:30:16.472Z,19.40
2023-05-23T07:33:04.846Z,19.20
2023-05-23T07:35:38.592Z,19.30
2023-05-23T07:38:08.730Z,19.10
2023-05-23T07:40:38.468Z,19.30
2023-05-23T07:43:06.718Z,19.30
2023-05-23T07:45:34.664Z,19.30
2023-05-23T07:48:04.097Z,19.10
2023-05-23T07:50:32.768Z,19.20
2023-05-23T07:53:01.062Z,19.30
2023-05-23T07:55:31.450Z,19.10
2023-05-23T07:57:59.857Z,19.00
2023-05-23T08:00:28.743Z,19.10
2023-05-23T08:03:05.272Z,19.00
2023-05-23T08:05:39.214Z,18.90
2023-05-23T08:08:07.181Z,19.10
2023-05-23T08:10:35.515Z,19.10
2023-05-23T08:13:11.257Z,19.00
2023-05-23T08:15:51.109Z,19.10
2023-05-23T08:18:26.050Z,19.10
2023-05-23T08:20:55.110Z,19.00
2023-05-23T08:23:23.010Z,19.00
2023-05-23T08:25:51.024Z,18.80
2023-05-23T08:28:19.346Z,18.60
2023-05-23T08:30:57.025Z,18.90
2023-05-23T08:33:27.681Z,19.00
2023-05-23T08:35:58.943Z,18.90
2023-05-23T08:38:27.182Z,18.70
2023-05-23T08:41:13.810Z,18.90
2023-05-23T08:43:41.797Z,18.90
2023-05-23T08:46:13.211Z,19.00
2023-05-23T08:48:44.036Z,18.90
2023-05-23T08:51:15.708Z,18.90
2023-05-23T08:53:50.494Z,18.90
2023-05-23T08:56:20.279Z,18.90
2023-05-23T08:58:50.854Z,19.10
2023-05-23T09:01:23.525Z,19.10
2023-05-23T09:03:56.202Z,19.00
2023-05-23T09:07:00.211Z,19.00
2023-05-23T09:09:29.935Z,19.10
2023-05-23T09:11:59.669Z,19.00
2023-05-23T09:14:31.928Z,19.00
2023-05-23T09:17:04.929Z,19.00
2023-05-23T09:19:34.856Z,19.30
2023-05-23T09:22:16.095Z,19.20
2023-05-23T09:24:57.700Z,18.70
2023-05-23T09:27:25.721Z,18.90
2023-05-23T09:29:53.664Z,18.70
2023-05-23T09:32:22.444Z,18.60
2023-05-23T09:34:58.843Z,18.50
2023-05-23T09:37:32.732Z,18.80
2023-05-23T09:40:01.827Z,18.90
2023-05-23T09:42:38.536Z,18.60
2023-05-23T09:45:08.110Z,18.60
2023-05-23T09:47:36.364Z,18.50
2023-05-23T09:50:08.693Z,18.50
2023-05-23T09:52:41.993Z,18.60
2023-05-23T09:55:10.873Z,18.60
2023-05-23T09:57:42.447Z,18.60
2023-05-23T10:00:12.381Z,18.70
2023-05-23T10:02:57.245Z,18.80
2023-05-23T10:05:34.812Z,18.90
2023-05-23T10:08:07.329Z,19.10
2023-05-23T10:10:36.519Z,19.00
2023-05-23T10:13:06.443Z,18.80
2023-05-23T10:15:39.917Z,18.80
2023-05-23T10:18:13.796Z,19.00
2023-05-23T10:20:51.348Z,19.10
2023-05-23T10:23:21.131Z,19.20
2023-05-23T10:25:49.867Z,19.40
2023-05-23T10:28:18.457Z,19.80
2023-05-23T10:30:47.835Z,19.50
2023-05-23T10:33:17.679Z,19.70
2023-05-23T10:36:05.966Z,19.60
2023-05-23T10:38:40.704Z,19.50
2023-05-23T10:41:14.806Z,19.40
2023-05-23T10:43:49.897Z,19.40
2023-05-23T10:46:20.734Z,19.40
2023-05-23T10:48:48.703Z,19.30
2023-05-23T10:51:17.980Z,19.30
2023-05-23T10:53:47.092Z,19.40
2023-05-23T10:56:21.736Z,19.40
2023-05-23T10:58:54.710Z,19.50
2023-05-23T11:01:23.588Z,19.60
2023-05-23T11:03:55.237Z,19.70
2023-05-23T11:06:33.637Z,19.90
2023-05-23T11:09:07.502Z,19.80
2023-05-23T11:11:55.502Z,19.90
2023-05-23T11:14:34.348Z,19.90
2023-05-23T11:17:15.909Z,20.00
2023-05-23T11:19:57.869Z,20.10
2023-05-23T11:22:31.125Z,20.20
2023-05-23T11:25:00.353Z,20.20
2023-05-23T11:27:34.473Z,20.30
2023-05-23T11:30:05.842Z,20.40
2023-05-23T11:32:34.868Z,20.40
2023-05-23T11:35:03.946Z,20.50
2023-05-23T11:37:33.362Z,20.50
2023-05-23T11:40:21.469Z,20.60
2023-05-23T11:42:49.309Z,20.70
2023-05-23T11:45:17.189Z,20.60
2023-05-23T11:47:45.293Z,20.70
2023-05-23T11:50:13.230Z,20.40
2023-05-23T11:52:42.704Z,20.70
2023-05-23T11:55:11.109Z,20.70
2023-05-23T11:57:39.583Z,20.70
2023-05-23T12:00:08.860Z,20.70
2023-05-23T12:02:40.312Z,20.70
2023-05-23T12:05:09.969Z,20.70
2023-05-23T12:07:42.467Z,20.80
2023-05-23T12:10:11.777Z,20.80
2023-05-23T12:12:39.695Z,20.70
2023-05-23T12:15:09.195Z,20.60
2023-05-23T12:17:37.832Z,20.50
2023-05-23T12:20:06.959Z,20.60
2023-05-23T12:22:34.844Z,20.60
2023-05-23T12:25:05.570Z,20.60
2023-05-23T12:27:37.125Z,20.50
2023-05-23T12:30:09.509Z,20.60
2023-05-23T12:32:40.491Z,20.60
2023-05-23T12:35:10.130Z,20.60
2023-05-23T12:37:40.904Z,20.50
2023-05-23T12:40:30.315Z,20.60
2023-05-23T12:43:12.364Z,20.50
2023-05-23T12:45:40.562Z,20.40
2023-05-23T12:48:09.259Z,20.50
2023-05-23T12:50:37.227Z,20.30
2023-05-23T12:53:05.141Z,20.40
2023-05-23T12:55:34.341Z,20.40
2023-05-23T12:58:02.933Z,20.30
2023-05-23T13:00:30.798Z,20.40
2023-05-23T13:05:53.783Z,20.30
2023-05-23T13:08:22.408Z,20.50
2023-05-23T13:10:51.619Z,20.50
2023-05-23T13:13:19.651Z,20.40
2023-05-23T13:15:49.701Z,20.40
2023-05-23T13:18:18.889Z,20.40
2023-05-23T13:20:46.961Z,20.50
2023-05-23T13:23:15.100Z,20.40
2023-05-23T13:25:43.317Z,20.50
2023-05-23T13:28:12.714Z,20.40
2023-05-23T13:30:41.269Z,20.60
2023-05-23T13:33:13.830Z,20.50
2023-05-23T13:35:56.119Z,20.50
2023-05-23T13:38:26.776Z,20.50
2023-05-23T13:40:55.448Z,20.50
2023-05-23T13:43:24.656Z,20.50
2023-05-23T13:45:58.774Z,20.50
2023-05-23T13:48:26.749Z,20.40
2023-05-23T13:50:54.766Z,20.50
2023-05-23T13:53:23.309Z,20.50
2023-05-23T13:55:51.203Z,20.50
2023-05-23T13:58:19.110Z,20.60
2023-05-23T14:00:48.883Z,20.70
2023-05-23T14:03:19.267Z,20.50
2023-05-23T14:05:50.987Z,20.60
2023-05-23T14:08:18.890Z,20.50
2023-05-23T14:10:46.906Z,20.60
2023-05-23T14:13:15.449Z,20.60
2023-05-23T14:15:43.690Z,20.50
2023-05-23T14:18:13.197Z,20.50
2023-05-23T14:20:41.344Z,20.40
2023-05-23T14:23:09.314Z,20.40
2023-05-23T14:25:37.408Z,20.40
2023-05-23T14:28:05.335Z,20.40
2023-05-23T14:30:33.205Z,20.30
2023-05-23T14:33:01.224Z,20.10
2023-05-23T14:35:30.666Z,20.20
2023-05-23T14:37:58.533Z,20.30
2023-05-23T14:40:26.512Z,20.30
2023-05-23T14:42:54.413Z,20.20
2023-05-23T14:45:23.234Z,20.30
2023-05-23T14:47:51.585Z,20.30
2023-05-23T14:50:20.332Z,20.40
2023-05-23T14:52:49.551Z,20.40
2023-05-23T14:55:17.505Z,20.30
2023-05-23T14:57:45.395Z,20.40
2023-05-23T15:00:14.347Z,20.20
2023-05-23T15:02:42.273Z,20.30
2023-05-23T15:05:10.928Z,20.40
2023-05-23T15:07:39.204Z,20.30
2023-05-23T15:10:09.588Z,20.40
2023-05-23T15:12:37.563Z,20.30
2023-05-23T15:15:06.101Z,20.40
2023-05-23T15:17:34.420Z,20.40
2023-05-23T15:20:04.473Z,20.40
2023-05-23T15:22:39.857Z,20.30
2023-05-23T15:25:38.400Z,20.40
2023-05-23T15:28:14.384Z,20.40
2023-05-23T15:33:24.321Z,20.10
2023-05-23T15:35:52.938Z,20.20
2023-05-23T15:38:20.813Z,20.10
2023-05-23T15:40:52.508Z,20.10
2023-05-23T15:43:20.548Z,20.20
2023-05-23T15:45:50.612Z,20.30
2023-05-23T15:48:18.810Z,20.30
2023-05-23T15:50:46.987Z,20.30
2023-05-23T15:53:14.866Z,20.40
2023-05-23T15:56:44.302Z,20.50
2023-05-23T15:59:13.556Z,20.60
2023-05-23T16:01:41.972Z,20.40
2023-05-23T16:04:10.138Z,20.40
2023-05-23T16:06:40.264Z,20.40
2023-05-23T16:09:08.153Z,20.40
2023-05-23T16:11:36.128Z,20.10
2023-05-23T16:14:03.975Z,20.20
2023-05-23T16:16:33.219Z,20.10
2023-05-23T16:19:01.175Z,20.00
2023-05-23T16:21:29.084Z,19.90
2023-05-23T16:23:57.128Z,20.00
2023-05-23T16:26:24.982Z,20.00
2023-05-23T16:28:53.734Z,19.70
2023-05-23T16:31:27.307Z,19.90
2023-05-23T16:33:56.641Z,20.00
2023-05-23T16:36:24.508Z,19.60
2023-05-23T16:38:54.700Z,19.70
2023-05-23T16:41:23.500Z,19.80
2023-05-23T16:43:51.593Z,19.90
2023-05-23T16:46:22.094Z,19.70
2023-05-23T16:48:50.313Z,20.00
2023-05-23T16:51:19.584Z,20.00
2023-05-23T16:53:47.594Z,19.90
2023-05-23T16:56:15.650Z,19.80
2023-05-23T16:58:43.554Z,19.90
2023-05-23T17:01:11.441Z,20.00
2023-05-23T17:03:41.715Z,20.00
2023-05-23T17:06:09.854Z,19.80
2023-05-23T17:08:39.109Z,19.80
2023-05-23T17:11:07.236Z,19.80
2023-05-23T17:13:35.956Z,19.80
2023-05-23T17:16:03.973Z,19.80
2023-05-23T17:18:31.916Z,19.80
2023-05-23T17:21:00.332Z,19.70
2023-05-23T17:23:28.218Z,19.70
2023-05-23T17:25:57.414Z,19.90
2023-05-23T17:28:25.543Z,19.90
2023-05-23T17:30:53.464Z,19.70
2023-05-23T17:33:21.810Z,19.60
2023-05-23T17:35:49.850Z,19.70
2023-05-23T17:38:17.755Z,19.80
2023-05-23T17:40:45.888Z,19.60
2023-05-23T17:43:15.276Z,19.60
2023-05-23T17:45:43.118Z,19.70
2023-05-23T17:48:11.351Z,19.50
2023-05-23T17:50:39.501Z,19.50
2023-05-23T17:53:07.745Z,19.50
2023-05-23T17:55:35.640Z,19.50
2023-05-23T17:58:03.529Z,19.60
2023-05-23T18:00:32.821Z,19.70
2023-05-23T18:03:02.554Z,19.80
2023-05-23T18:05:30.697Z,19.70
2023-05-23T18:07:58.910Z,19.70
2023-05-23T18:10:26.778Z,19.50
2023-05-23T18:12:54.614Z,19.60
2023-05-23T18:15:22.579Z,19.50
2023-05-23T18:17:55.337Z,19.50
2023-05-23T18:20:23.334Z,19.40
2023-05-23T18:22:53.929Z,19.50
2023-05-23T18:25:27.190Z,19.40
2023-05-23T18:27:55.988Z,19.40
2023-05-23T18:30:24.016Z,19.40
2023-05-23T18:32:53.449Z,19.60
2023-05-23T18:35:21.903Z,19.40
2023-05-23T18:37:49.939Z,19.30
2023-05-23T18:40:18.224Z,18.90
2023-05-23T18:42:47.274Z,19.00
2023-05-23T18:45:15.146Z,19.10
2023-05-23T18:47:43.217Z,19.20
2023-05-23T18:50:14.204Z,19.20
2023-05-23T18:52:43.082Z,19.10
2023-05-23T18:55:12.049Z,19.00
2023-05-23T18:57:39.921Z,19.00
2023-05-23T19:00:09.187Z,18.80
2023-05-23T19:02:37.219Z,18.60
2023-05-23T19:05:05.723Z,18.90
2023-05-23T19:07:34.940Z,18.90
2023-05-23T19:10:02.882Z,19.00
2023-05-23T19:12:30.783Z,18.90
2023-05-23T19:14:59.111Z,18.90
2023-05-23T19:17:27.053Z,18.80
2023-05-23T19:19:55.539Z,18.50
2023-05-23T19:22:23.708Z,18.70
2023-05-23T19:24:52.907Z,18.60
2023-05-23T19:27:20.775Z,18.60
2023-05-23T19:29:48.642Z,18.80
2023-05-23T19:32:16.652Z,18.80
2023-05-23T19:34:45.123Z,18.70
2023-05-23T19:37:13.082Z,18.40
2023-05-23T19:39:45.521Z,18.50
2023-05-23T19:42:14.775Z,18.60
2023-05-23T19:44:42.816Z,18.60
2023-05-23T19:47:13.394Z,18.60
2023-05-23T19:49:41.472Z,18.50
2023-05-23T19:52:09.324Z,18.60
2023-05-23T19:54:37.325Z,18.50
2023-05-23T19:57:05.369Z,18.40
2023-05-23T19:59:34.876Z,18.40
2023-05-23T20:02:03.376Z,18.30
2023-05-23T20:04:31.378Z,18.80
2023-05-23T20:07:00.479Z,19.00
2023-05-23T20:09:28.321Z,19.10
2023-05-23T20:11:56.186Z,19.20
2023-05-23T20:14:24.039Z,19.20
2023-05-23T20:16:53.842Z,19.30
2023-05-23T20:19:21.830Z,19.40
2023-05-23T20:21:50.310Z,19.40
2023-05-23T20:24:18.285Z,19.50
2023-05-23T20:26:46.618Z,19.40
2023-05-23T20:29:14.512Z,19.50
2023-05-23T20:31:42.503Z,19.50
2023-05-23T20:34:11.776Z,19.50
2023-05-23T20:36:39.914Z,19.60
2023-05-23T20:39:07.805Z,19.60
2023-05-23T20:41:35.660Z,19.60
2023-05-23T20:44:03.523Z,19.60
2023-05-23T20:46:31.454Z,19.70
2023-05-23T20:48:59.378Z,19.70
2023-05-23T20:51:28.618Z,19.60
2023-05-23T20:53:56.525Z,19.60
2023-05-23T20:56:24.508Z,19.70
2023-05-23T20:58:52.442Z,19.70
2023-05-23T21:01:23.024Z,19.70
2023-05-23T21:03:51.080Z,19.70
2023-05-23T21:06:19.205Z,19.70
2023-05-23T21:08:48.413Z,19.70
2023-05-23T21:11:16.292Z,19.70
2023-05-23T21:13:44.648Z,19.70
2023-05-23T21:16:14.461Z,19.60
2023-05-23T21:18:42.662Z,19.70
2023-05-23T21:21:10.619Z,19.70
2023-05-23T21:23:38.504Z,19.70
2023-05-23T21:26:07.878Z,19.70
2023-05-23T21:28:35.818Z,19.70
2023-05-23T21:31:06.663Z,19.70
2023-05-23T21:33:34.592Z,19.70
2023-05-23T21:36:02.444Z,19.70
2023-05-23T21:38:30.366Z,19.70
2023-05-23T21:40:58.199Z,19.60
2023-05-23T21:43:27.622Z,19.70
2023-05-23T21:45:55.594Z,19.60
2023-05-23T21:48:23.463Z,19.60
2023-05-23T21:50:51.549Z,19.70
2023-05-23T21:53:19.423Z,19.60
2023-05-23T21:55:47.336Z,19.60
2023-05-23T21:58:15.999Z,19.60
2023-05-23T22:00:45.628Z,19.60
2023-05-23T22:03:13.615Z,19.60
2023-05-23T22:05:41.633Z,19.60
2023-05-23T22:08:09.518Z,19.60
2023-05-23T22:10:37.746Z,19.60
2023-05-23T22:13:05.688Z,19.60
2023-05-23T22:15:35.253Z,19.60
2023-05-23T22:18:05.027Z,19.60
2023-05-23T22:20:34.009Z,19.60
2023-05-23T22:23:03.013Z,19.70
2023-05-23T22:25:32.536Z,19.60
2023-05-23T22:28:01.297Z,19.50
2023-05-23T22:30:29.341Z,19.60
2023-05-23T22:32:57.759Z,19.60
2023-05-23T22:35:27.184Z,19.50
2023-05-23T22:37:55.494Z,19.50
2023-05-23T22:40:23.353Z,19.50
2023-05-23T22:42:51.236Z,19.50
2023-05-23T22:45:20.250Z,19.50
2023-05-23T22:47:50.542Z,19.60
2023-05-23T22:50:18.641Z,19.60
2023-05-23T22:52:48.446Z,19.50
2023-05-23T22:55:16.414Z,19.50
2023-05-23T22:57:44.270Z,19.40
2023-05-23T23:00:13.539Z,19.40
2023-05-23T23:02:41.443Z,19.50
2023-05-23T23:05:11.999Z,19.40
2023-05-23T23:07:39.898Z,19.40
2023-05-23T23:10:10.791Z,19.40
2023-05-23T23:12:38.859Z,19.40
2023-05-23T23:15:07.468Z,19.40
2023-05-23T23:17:35.414Z,19.40
2023-05-23T23:20:04.389Z,19.50
2023-05-23T23:22:32.264Z,19.50
2023-05-23T23:25:02.010Z,19.50
2023-05-23T23:27:32.265Z,19.40
2023-05-23T23:30:00.913Z,19.50
2023-05-23T23:32:28.805Z,19.40
2023-05-23T23:34:56.734Z,19.50
2023-05-23T23:37:24.657Z,19.50
2023-05-23T23:39:52.596Z,19.50
2023-05-23T23:42:20.538Z,19.50
2023-05-23T23:44:49.911Z,19.40
2023-05-23T23:47:17.778Z,19.40
2023-05-23T23:49:45.796Z,19.40
2023-05-23T23:52:13.702Z,19.40
2023-05-23T23:54:41.580Z,19.40
2023-05-23T23:57:13.557Z,19.30
2023-05-23T23:59:41.781Z,19.40
